sensor_id;sensor_type;location;lat;lon;timestamp;P1;durP1;ratioP1;P2;durP2;ratioP2
1262;SDS011;62267;50.112;8.704;2022-10-16T00:01:49;7.40;;;6.70;;
1262;SDS011;62267;50.112;8.704;2022-10-16T00:04:35;7.30;;;6.60;;
1262;SDS011;62267;50.112;8.704;2022-10-16T00:07:21;7.87;;;6.93;;
1262;SDS011;62267;50.112;8.704;2022-10-16T00:10:07;7.47;;;6.30;;
1262;SDS011;62267;50.112;8.704;2022-10-16T00:12:54;7.87;;;7.00;;
1262;SDS011;62267;50.112;8.704;2022-10-16T00:15:40;8.33;;;7.47;;
1262;SDS011;62267;50.112;8.704;2022-10-16T00:18:28;9.43;;;7.57;;
1262;SDS011;62267;50.112;8.704;2022-10-16T00:21:16;7.03;;;6.40;;
1262;SDS011;62267;50.112;8.704;2022-10-16T00:24:06;7.07;;;5.93;;
1262;SDS011;62267;50.112;8.704;2022-10-16T00:26:54;10.13;;;6.70;;
1262;SDS011;62267;50.112;8.704;2022-10-16T00:29:40;8.10;;;7.30;;
1262;SDS011;62267;50.112;8.704;2022-10-16T00:32:26;7.60;;;6.80;;
1262;SDS011;62267;50.112;8.704;2022-10-16T00:35:12;8.83;;;6.60;;
1262;SDS011;62267;50.112;8.704;2022-10-16T00:37:59;6.67;;;6.07;;
1262;SDS011;62267;50.112;8.704;2022-10-16T00:40:45;5.97;;;5.47;;
1262;SDS011;62267;50.112;8.704;2022-10-16T00:43:53;6.60;;;6.00;;
1262;SDS011;62267;50.112;8.704;2022-10-16T00:46:38;6.20;;;5.60;;
1262;SDS011;62267;50.112;8.704;2022-10-16T00:49:24;8.97;;;6.07;;
1262;SDS011;62267;50.112;8.704;2022-10-16T00:52:10;5.87;;;5.37;;
1262;SDS011;62267;50.112;8.704;2022-10-16T00:54:56;6.23;;;4.90;;
1262;SDS011;62267;50.112;8.704;2022-10-16T00:57:45;4.97;;;4.67;;
1262;SDS011;62267;50.112;8.704;2022-10-16T01:00:31;5.97;;;4.63;;
1262;SDS011;62267;50.112;8.704;2022-10-16T01:09:12;4.13;;;3.80;;
1262;SDS011;62267;50.112;8.704;2022-10-16T01:12:09;6.13;;;4.50;;
1262;SDS011;62267;50.112;8.704;2022-10-16T01:15:00;5.03;;;4.40;;
1262;SDS011;62267;50.112;8.704;2022-10-16T01:17:49;4.70;;;4.30;;
1262;SDS011;62267;50.112;8.704;2022-10-16T01:20:40;4.60;;;4.27;;
1262;SDS011;62267;50.112;8.704;2022-10-16T01:23:36;5.23;;;4.83;;
1262;SDS011;62267;50.112;8.704;2022-10-16T01:29:16;5.60;;;5.00;;
1262;SDS011;62267;50.112;8.704;2022-10-16T01:32:05;5.40;;;4.90;;
1262;SDS011;62267;50.112;8.704;2022-10-16T01:34:54;5.67;;;5.20;;
1262;SDS011;62267;50.112;8.704;2022-10-16T01:37:49;5.30;;;4.60;;
1262;SDS011;62267;50.112;8.704;2022-10-16T01:40:38;4.97;;;3.97;;
1262;SDS011;62267;50.112;8.704;2022-10-16T01:43:26;5.43;;;4.40;;
1262;SDS011;62267;50.112;8.704;2022-10-16T01:46:15;5.90;;;4.17;;
1262;SDS011;62267;50.112;8.704;2022-10-16T01:49:02;3.53;;;3.33;;
1262;SDS011;62267;50.112;8.704;2022-10-16T01:51:50;3.83;;;3.53;;
1262;SDS011;62267;50.112;8.704;2022-10-16T01:54:37;3.30;;;3.10;;
1262;SDS011;62267;50.112;8.704;2022-10-16T01:57:27;3.83;;;3.40;;
1262;SDS011;62267;50.112;8.704;2022-10-16T02:00:14;3.70;;;3.33;;
1262;SDS011;62267;50.112;8.704;2022-10-16T02:03:02;3.50;;;3.30;;
1262;SDS011;62267;50.112;8.704;2022-10-16T02:05:50;3.90;;;3.50;;
1262;SDS011;62267;50.112;8.704;2022-10-16T02:08:37;3.67;;;3.33;;
1262;SDS011;62267;50.112;8.704;2022-10-16T02:11:25;3.57;;;3.27;;
1262;SDS011;62267;50.112;8.704;2022-10-16T02:14:11;3.50;;;3.10;;
1262;SDS011;62267;50.112;8.704;2022-10-16T02:16:57;2.80;;;2.60;;
1262;SDS011;62267;50.112;8.704;2022-10-16T02:19:43;3.40;;;3.10;;
1262;SDS011;62267;50.112;8.704;2022-10-16T02:22:34;3.30;;;3.00;;
1262;SDS011;62267;50.112;8.704;2022-10-16T02:25:31;3.23;;;3.03;;
1262;SDS011;62267;50.112;8.704;2022-10-16T02:28:18;5.73;;;3.33;;
1262;SDS011;62267;50.112;8.704;2022-10-16T02:31:06;3.50;;;2.63;;
1262;SDS011;62267;50.112;8.704;2022-10-16T02:33:54;2.90;;;2.70;;
1262;SDS011;62267;50.112;8.704;2022-10-16T02:36:42;4.37;;;3.67;;
1262;SDS011;62267;50.112;8.704;2022-10-16T02:39:29;2.73;;;2.53;;
1262;SDS011;62267;50.112;8.704;2022-10-16T02:42:17;3.53;;;3.00;;
1262;SDS011;62267;50.112;8.704;2022-10-16T02:45:04;3.43;;;3.13;;
1262;SDS011;62267;50.112;8.704;2022-10-16T02:47:52;4.90;;;2.50;;
1262;SDS011;62267;50.112;8.704;2022-10-16T02:50:38;2.73;;;2.53;;
1262;SDS011;62267;50.112;8.704;2022-10-16T02:53:23;3.57;;;3.27;;
1262;SDS011;62267;50.112;8.704;2022-10-16T02:56:09;2.80;;;2.60;;
1262;SDS011;62267;50.112;8.704;2022-10-16T02:58:55;2.77;;;2.57;;
1262;SDS011;62267;50.112;8.704;2022-10-16T03:01:41;2.70;;;2.60;;
1262;SDS011;62267;50.112;8.704;2022-10-16T03:04:27;2.67;;;2.47;;
1262;SDS011;62267;50.112;8.704;2022-10-16T03:07:13;2.90;;;2.50;;
1262;SDS011;62267;50.112;8.704;2022-10-16T03:09:59;3.13;;;2.90;;
1262;SDS011;62267;50.112;8.704;2022-10-16T03:12:44;3.40;;;2.50;;
1262;SDS011;62267;50.112;8.704;2022-10-16T03:15:32;3.03;;;2.70;;
1262;SDS011;62267;50.112;8.704;2022-10-16T03:18:18;2.80;;;2.60;;
1262;SDS011;62267;50.112;8.704;2022-10-16T03:21:03;2.53;;;2.43;;
1262;SDS011;62267;50.112;8.704;2022-10-16T03:23:49;2.60;;;2.40;;
1262;SDS011;62267;50.112;8.704;2022-10-16T03:26:35;3.10;;;2.90;;
1262;SDS011;62267;50.112;8.704;2022-10-16T03:29:21;2.63;;;2.50;;
1262;SDS011;62267;50.112;8.704;2022-10-16T03:32:07;2.90;;;2.70;;
1262;SDS011;62267;50.112;8.704;2022-10-16T03:34:52;2.27;;;2.17;;
1262;SDS011;62267;50.112;8.704;2022-10-16T03:37:39;2.73;;;2.53;;
1262;SDS011;62267;50.112;8.704;2022-10-16T03:40:25;2.67;;;2.50;;
1262;SDS011;62267;50.112;8.704;2022-10-16T03:43:11;2.50;;;2.30;;
1262;SDS011;62267;50.112;8.704;2022-10-16T03:45:56;2.90;;;2.30;;
1262;SDS011;62267;50.112;8.704;2022-10-16T03:48:42;2.83;;;2.63;;
1262;SDS011;62267;50.112;8.704;2022-10-16T03:51:28;3.53;;;2.40;;
1262;SDS011;62267;50.112;8.704;2022-10-16T03:54:14;2.70;;;2.50;;
1262;SDS011;62267;50.112;8.704;2022-10-16T03:57:00;2.20;;;2.10;;
1262;SDS011;62267;50.112;8.704;2022-10-16T03:59:46;2.57;;;2.37;;
1262;SDS011;62267;50.112;8.704;2022-10-16T04:02:31;2.60;;;2.40;;
1262;SDS011;62267;50.112;8.704;2022-10-16T04:05:17;3.53;;;3.23;;
1262;SDS011;62267;50.112;8.704;2022-10-16T04:08:04;2.80;;;2.33;;
1262;SDS011;62267;50.112;8.704;2022-10-16T04:10:50;3.03;;;2.27;;
1262;SDS011;62267;50.112;8.704;2022-10-16T04:13:36;2.73;;;2.20;;
1262;SDS011;62267;50.112;8.704;2022-10-16T04:16:22;6.13;;;2.70;;
1262;SDS011;62267;50.112;8.704;2022-10-16T04:19:08;2.50;;;2.40;;
1262;SDS011;62267;50.112;8.704;2022-10-16T04:21:54;2.83;;;2.63;;
1262;SDS011;62267;50.112;8.704;2022-10-16T04:24:40;7.23;;;2.70;;
1262;SDS011;62267;50.112;8.704;2022-10-16T04:27:26;2.93;;;2.70;;
1262;SDS011;62267;50.112;8.704;2022-10-16T04:30:13;3.43;;;2.33;;
1262;SDS011;62267;50.112;8.704;2022-10-16T04:32:59;2.70;;;2.50;;
1262;SDS011;62267;50.112;8.704;2022-10-16T04:35:55;2.67;;;2.47;;
1262;SDS011;62267;50.112;8.704;2022-10-16T04:38:42;2.60;;;2.43;;
1262;SDS011;62267;50.112;8.704;2022-10-16T04:41:27;4.37;;;3.50;;
1262;SDS011;62267;50.112;8.704;2022-10-16T04:44:13;3.00;;;2.80;;
1262;SDS011;62267;50.112;8.704;2022-10-16T04:46:59;3.43;;;2.70;;
1262;SDS011;62267;50.112;8.704;2022-10-16T04:49:45;3.00;;;2.80;;
1262;SDS011;62267;50.112;8.704;2022-10-16T04:52:31;3.13;;;2.90;;
1262;SDS011;62267;50.112;8.704;2022-10-16T04:55:22;2.70;;;2.50;;
1262;SDS011;62267;50.112;8.704;2022-10-16T04:58:08;3.20;;;3.00;;
1262;SDS011;62267;50.112;8.704;2022-10-16T05:00:54;6.00;;;3.10;;
1262;SDS011;62267;50.112;8.704;2022-10-16T05:03:39;3.77;;;3.30;;
1262;SDS011;62267;50.112;8.704;2022-10-16T05:06:25;3.43;;;2.30;;
1262;SDS011;62267;50.112;8.704;2022-10-16T05:09:11;4.87;;;3.00;;
1262;SDS011;62267;50.112;8.704;2022-10-16T05:11:56;3.03;;;2.83;;
1262;SDS011;62267;50.112;8.704;2022-10-16T05:14:42;5.00;;;4.50;;
1262;SDS011;62267;50.112;8.704;2022-10-16T05:17:28;5.37;;;4.87;;
1262;SDS011;62267;50.112;8.704;2022-10-16T05:20:15;3.90;;;3.50;;
1262;SDS011;62267;50.112;8.704;2022-10-16T05:23:03;3.10;;;2.80;;
1262;SDS011;62267;50.112;8.704;2022-10-16T05:25:56;3.30;;;3.07;;
1262;SDS011;62267;50.112;8.704;2022-10-16T05:28:43;3.50;;;3.20;;
1262;SDS011;62267;50.112;8.704;2022-10-16T05:31:29;5.33;;;3.20;;
1262;SDS011;62267;50.112;8.704;2022-10-16T05:34:14;5.00;;;4.43;;
1262;SDS011;62267;50.112;8.704;2022-10-16T05:37:03;3.60;;;3.37;;
1262;SDS011;62267;50.112;8.704;2022-10-16T05:39:49;3.30;;;3.10;;
1262;SDS011;62267;50.112;8.704;2022-10-16T05:42:35;4.13;;;3.30;;
1262;SDS011;62267;50.112;8.704;2022-10-16T05:45:21;3.30;;;3.10;;
1262;SDS011;62267;50.112;8.704;2022-10-16T05:48:07;3.60;;;2.80;;
1262;SDS011;62267;50.112;8.704;2022-10-16T05:51:04;3.30;;;3.10;;
1262;SDS011;62267;50.112;8.704;2022-10-16T05:53:51;2.70;;;2.50;;
1262;SDS011;62267;50.112;8.704;2022-10-16T05:56:37;3.30;;;3.00;;
1262;SDS011;62267;50.112;8.704;2022-10-16T05:59:23;4.57;;;4.23;;
1262;SDS011;62267;50.112;8.704;2022-10-16T06:02:12;5.93;;;4.53;;
1262;SDS011;62267;50.112;8.704;2022-10-16T06:04:58;3.97;;;3.67;;
1262;SDS011;62267;50.112;8.704;2022-10-16T06:07:44;3.17;;;2.97;;
1262;SDS011;62267;50.112;8.704;2022-10-16T06:10:30;3.40;;;3.20;;
1262;SDS011;62267;50.112;8.704;2022-10-16T06:13:16;3.97;;;3.67;;
1262;SDS011;62267;50.112;8.704;2022-10-16T06:16:03;5.20;;;3.50;;
1262;SDS011;62267;50.112;8.704;2022-10-16T06:18:52;5.83;;;3.50;;
1262;SDS011;62267;50.112;8.704;2022-10-16T06:21:38;3.33;;;3.13;;
1262;SDS011;62267;50.112;8.704;2022-10-16T06:24:24;3.00;;;2.80;;
1262;SDS011;62267;50.112;8.704;2022-10-16T06:27:10;5.43;;;3.60;;
1262;SDS011;62267;50.112;8.704;2022-10-16T06:29:56;6.07;;;4.70;;
1262;SDS011;62267;50.112;8.704;2022-10-16T06:32:42;3.93;;;3.63;;
1262;SDS011;62267;50.112;8.704;2022-10-16T06:35:28;4.10;;;3.30;;
1262;SDS011;62267;50.112;8.704;2022-10-16T06:38:16;4.47;;;4.17;;
1262;SDS011;62267;50.112;8.704;2022-10-16T06:41:02;3.70;;;3.43;;
1262;SDS011;62267;50.112;8.704;2022-10-16T06:43:48;6.23;;;5.20;;
1262;SDS011;62267;50.112;8.704;2022-10-16T06:46:34;8.10;;;6.07;;
1262;SDS011;62267;50.112;8.704;2022-10-16T06:49:21;7.97;;;5.30;;
1262;SDS011;62267;50.112;8.704;2022-10-16T06:52:07;11.63;;;5.50;;
1262;SDS011;62267;50.112;8.704;2022-10-16T06:54:53;7.80;;;6.70;;
1262;SDS011;62267;50.112;8.704;2022-10-16T06:57:39;6.27;;;5.67;;
1262;SDS011;62267;50.112;8.704;2022-10-16T07:00:25;9.43;;;7.23;;
1262;SDS011;62267;50.112;8.704;2022-10-16T07:03:11;8.50;;;6.50;;
1262;SDS011;62267;50.112;8.704;2022-10-16T07:05:57;9.93;;;7.30;;
1262;SDS011;62267;50.112;8.704;2022-10-16T07:08:48;11.93;;;9.00;;
1262;SDS011;62267;50.112;8.704;2022-10-16T07:11:34;7.83;;;6.83;;
1262;SDS011;62267;50.112;8.704;2022-10-16T07:14:20;7.80;;;6.37;;
1262;SDS011;62267;50.112;8.704;2022-10-16T07:17:06;12.30;;;7.13;;
1262;SDS011;62267;50.112;8.704;2022-10-16T07:19:52;8.43;;;7.37;;
1262;SDS011;62267;50.112;8.704;2022-10-16T07:22:40;8.07;;;7.27;;
1262;SDS011;62267;50.112;8.704;2022-10-16T07:25:27;7.23;;;6.53;;
1262;SDS011;62267;50.112;8.704;2022-10-16T07:28:12;8.40;;;7.60;;
1262;SDS011;62267;50.112;8.704;2022-10-16T07:31:02;8.20;;;7.37;;
1262;SDS011;62267;50.112;8.704;2022-10-16T07:33:49;9.90;;;7.20;;
1262;SDS011;62267;50.112;8.704;2022-10-16T07:36:35;7.70;;;7.00;;
1262;SDS011;62267;50.112;8.704;2022-10-16T07:39:21;7.63;;;6.93;;
1262;SDS011;62267;50.112;8.704;2022-10-16T07:42:06;7.73;;;5.97;;
1262;SDS011;62267;50.112;8.704;2022-10-16T07:44:53;5.83;;;5.33;;
1262;SDS011;62267;50.112;8.704;2022-10-16T07:47:38;6.30;;;5.70;;
1262;SDS011;62267;50.112;8.704;2022-10-16T07:50:25;6.80;;;6.17;;
1262;SDS011;62267;50.112;8.704;2022-10-16T07:53:11;6.33;;;5.43;;
1262;SDS011;62267;50.112;8.704;2022-10-16T07:56:00;7.43;;;6.17;;
1262;SDS011;62267;50.112;8.704;2022-10-16T07:58:47;7.37;;;6.10;;
1262;SDS011;62267;50.112;8.704;2022-10-16T08:01:34;5.83;;;5.33;;
1262;SDS011;62267;50.112;8.704;2022-10-16T08:04:19;5.90;;;5.40;;
1262;SDS011;62267;50.112;8.704;2022-10-16T08:07:06;7.90;;;6.33;;
1262;SDS011;62267;50.112;8.704;2022-10-16T08:09:52;6.70;;;6.20;;
1262;SDS011;62267;50.112;8.704;2022-10-16T08:12:38;6.97;;;6.20;;
1262;SDS011;62267;50.112;8.704;2022-10-16T08:15:24;6.33;;;5.47;;
1262;SDS011;62267;50.112;8.704;2022-10-16T08:18:11;6.10;;;5.53;;
1262;SDS011;62267;50.112;8.704;2022-10-16T08:20:59;11.83;;;6.27;;
1262;SDS011;62267;50.112;8.704;2022-10-16T08:23:45;6.70;;;5.70;;
1262;SDS011;62267;50.112;8.704;2022-10-16T08:26:35;7.67;;;6.30;;
1262;SDS011;62267;50.112;8.704;2022-10-16T08:29:21;7.73;;;6.93;;
1262;SDS011;62267;50.112;8.704;2022-10-16T08:32:07;7.70;;;6.90;;
1262;SDS011;62267;50.112;8.704;2022-10-16T08:34:53;7.40;;;6.70;;
1262;SDS011;62267;50.112;8.704;2022-10-16T08:37:39;8.70;;;7.90;;
1262;SDS011;62267;50.112;8.704;2022-10-16T08:40:26;8.37;;;7.57;;
1262;SDS011;62267;50.112;8.704;2022-10-16T08:49:23;10.03;;;9.03;;
1262;SDS011;62267;50.112;8.704;2022-10-16T08:52:12;12.63;;;9.87;;
1262;SDS011;62267;50.112;8.704;2022-10-16T08:54:59;11.57;;;9.60;;
1262;SDS011;62267;50.112;8.704;2022-10-16T08:57:45;10.00;;;9.00;;
1262;SDS011;62267;50.112;8.704;2022-10-16T09:00:31;10.67;;;9.40;;
1262;SDS011;62267;50.112;8.704;2022-10-16T09:03:19;10.00;;;9.07;;
1262;SDS011;62267;50.112;8.704;2022-10-16T09:06:10;10.17;;;9.17;;
1262;SDS011;62267;50.112;8.704;2022-10-16T09:11:56;11.77;;;10.07;;
1262;SDS011;62267;50.112;8.704;2022-10-16T09:18:00;8.80;;;7.60;;
1262;SDS011;62267;50.112;8.704;2022-10-16T09:23:52;9.23;;;7.60;;
1262;SDS011;62267;50.112;8.704;2022-10-16T09:26:39;9.83;;;8.93;;
1262;SDS011;62267;50.112;8.704;2022-10-16T09:29:26;11.80;;;10.33;;
1262;SDS011;62267;50.112;8.704;2022-10-16T09:32:13;15.10;;;11.30;;
1262;SDS011;62267;50.112;8.704;2022-10-16T09:34:59;12.30;;;9.60;;
1262;SDS011;62267;50.112;8.704;2022-10-16T09:37:46;13.23;;;11.43;;
1262;SDS011;62267;50.112;8.704;2022-10-16T09:40:37;13.93;;;12.50;;
1262;SDS011;62267;50.112;8.704;2022-10-16T09:46:22;15.67;;;12.90;;
1262;SDS011;62267;50.112;8.704;2022-10-16T09:52:14;17.63;;;13.90;;
1262;SDS011;62267;50.112;8.704;2022-10-16T09:55:02;18.50;;;12.83;;
1262;SDS011;62267;50.112;8.704;2022-10-16T09:57:49;14.17;;;12.03;;
1262;SDS011;62267;50.112;8.704;2022-10-16T10:00:35;13.23;;;11.87;;
1262;SDS011;62267;50.112;8.704;2022-10-16T10:03:33;17.13;;;12.50;;
1262;SDS011;62267;50.112;8.704;2022-10-16T10:06:24;12.50;;;11.17;;
1262;SDS011;62267;50.112;8.704;2022-10-16T10:09:21;12.03;;;10.47;;
1262;SDS011;62267;50.112;8.704;2022-10-16T10:12:17;13.37;;;11.47;;
1262;SDS011;62267;50.112;8.704;2022-10-16T10:15:13;17.53;;;12.27;;
1262;SDS011;62267;50.112;8.704;2022-10-16T10:18:15;15.60;;;10.33;;
1262;SDS011;62267;50.112;8.704;2022-10-16T10:21:02;11.30;;;10.20;;
1262;SDS011;62267;50.112;8.704;2022-10-16T10:23:57;13.17;;;10.27;;
1262;SDS011;62267;50.112;8.704;2022-10-16T10:27:05;13.10;;;10.07;;
1262;SDS011;62267;50.112;8.704;2022-10-16T10:30:10;12.67;;;9.47;;
1262;SDS011;62267;50.112;8.704;2022-10-16T10:33:09;10.67;;;8.63;;
1262;SDS011;62267;50.112;8.704;2022-10-16T10:39:04;7.50;;;6.70;;
1262;SDS011;62267;50.112;8.704;2022-10-16T10:42:04;6.10;;;5.50;;
1262;SDS011;62267;50.112;8.704;2022-10-16T10:47:57;7.30;;;5.57;;
1262;SDS011;62267;50.112;8.704;2022-10-16T10:50:56;5.77;;;5.27;;
1262;SDS011;62267;50.112;8.704;2022-10-16T10:53:47;8.37;;;7.67;;
1262;SDS011;62267;50.112;8.704;2022-10-16T11:00:03;9.93;;;8.93;;
1262;SDS011;62267;50.112;8.704;2022-10-16T11:02:55;12.03;;;9.63;;
1262;SDS011;62267;50.112;8.704;2022-10-16T11:05:44;10.43;;;9.43;;
1262;SDS011;62267;50.112;8.704;2022-10-16T11:08:39;11.93;;;10.20;;
1262;SDS011;62267;50.112;8.704;2022-10-16T11:11:32;13.70;;;10.30;;
1262;SDS011;62267;50.112;8.704;2022-10-16T11:14:26;13.17;;;11.77;;
1262;SDS011;62267;50.112;8.704;2022-10-16T11:20:42;11.90;;;10.70;;
1262;SDS011;62267;50.112;8.704;2022-10-16T11:23:42;12.00;;;11.00;;
1262;SDS011;62267;50.112;8.704;2022-10-16T11:26:32;11.50;;;10.60;;
1262;SDS011;62267;50.112;8.704;2022-10-16T11:29:22;12.90;;;10.87;;
1262;SDS011;62267;50.112;8.704;2022-10-16T11:32:32;11.83;;;10.73;;
1262;SDS011;62267;50.112;8.704;2022-10-16T11:35:21;10.40;;;9.33;;
1262;SDS011;62267;50.112;8.704;2022-10-16T11:38:10;12.10;;;10.80;;
1262;SDS011;62267;50.112;8.704;2022-10-16T11:41:10;10.93;;;10.00;;
1262;SDS011;62267;50.112;8.704;2022-10-16T11:56:04;10.27;;;9.30;;
1262;SDS011;62267;50.112;8.704;2022-10-16T12:01:57;9.53;;;8.73;;
1262;SDS011;62267;50.112;8.704;2022-10-16T12:04:46;10.17;;;9.17;;
1262;SDS011;62267;50.112;8.704;2022-10-16T12:07:36;9.60;;;8.27;;
1262;SDS011;62267;50.112;8.704;2022-10-16T12:10:27;8.03;;;7.33;;
1262;SDS011;62267;50.112;8.704;2022-10-16T12:16:21;7.50;;;6.90;;
1262;SDS011;62267;50.112;8.704;2022-10-16T12:19:13;7.60;;;6.80;;
1262;SDS011;62267;50.112;8.704;2022-10-16T12:22:00;5.73;;;5.23;;
1262;SDS011;62267;50.112;8.704;2022-10-16T12:24:50;5.20;;;4.73;;
1262;SDS011;62267;50.112;8.704;2022-10-16T12:27:36;5.40;;;4.60;;
1262;SDS011;62267;50.112;8.704;2022-10-16T12:30:25;4.97;;;4.57;;
1262;SDS011;62267;50.112;8.704;2022-10-16T12:33:23;4.50;;;4.20;;
1262;SDS011;62267;50.112;8.704;2022-10-16T12:36:16;4.30;;;3.90;;
1262;SDS011;62267;50.112;8.704;2022-10-16T12:39:19;4.67;;;4.27;;
1262;SDS011;62267;50.112;8.704;2022-10-16T12:42:19;4.00;;;3.80;;
1262;SDS011;62267;50.112;8.704;2022-10-16T12:48:19;5.70;;;4.03;;
1262;SDS011;62267;50.112;8.704;2022-10-16T12:51:23;5.10;;;4.23;;
1262;SDS011;62267;50.112;8.704;2022-10-16T12:59:58;4.07;;;3.70;;
1262;SDS011;62267;50.112;8.704;2022-10-16T13:05:45;4.60;;;4.20;;
1262;SDS011;62267;50.112;8.704;2022-10-16T13:08:45;5.00;;;4.60;;
1262;SDS011;62267;50.112;8.704;2022-10-16T13:14:52;4.77;;;4.37;;
1262;SDS011;62267;50.112;8.704;2022-10-16T13:17:52;5.00;;;4.60;;
1262;SDS011;62267;50.112;8.704;2022-10-16T13:23:48;4.10;;;3.80;;
1262;SDS011;62267;50.112;8.704;2022-10-16T13:26:41;4.73;;;4.33;;
1262;SDS011;62267;50.112;8.704;2022-10-16T13:29:30;4.90;;;4.53;;
1262;SDS011;62267;50.112;8.704;2022-10-16T13:32:17;4.50;;;4.20;;
1262;SDS011;62267;50.112;8.704;2022-10-16T13:35:18;5.00;;;4.50;;
1262;SDS011;62267;50.112;8.704;2022-10-16T13:41:00;5.07;;;4.70;;
1262;SDS011;62267;50.112;8.704;2022-10-16T13:43:47;4.07;;;3.83;;
1262;SDS011;62267;50.112;8.704;2022-10-16T13:46:34;3.70;;;3.50;;
1262;SDS011;62267;50.112;8.704;2022-10-16T13:49:20;4.27;;;4.03;;
1262;SDS011;62267;50.112;8.704;2022-10-16T13:52:15;4.67;;;4.27;;
1262;SDS011;62267;50.112;8.704;2022-10-16T13:55:02;4.20;;;3.90;;
1262;SDS011;62267;50.112;8.704;2022-10-16T13:57:49;5.70;;;5.23;;
1262;SDS011;62267;50.112;8.704;2022-10-16T14:00:35;4.43;;;4.03;;
1262;SDS011;62267;50.112;8.704;2022-10-16T14:03:22;4.43;;;4.13;;
1262;SDS011;62267;50.112;8.704;2022-10-16T14:06:14;3.70;;;3.50;;
1262;SDS011;62267;50.112;8.704;2022-10-16T14:09:06;4.97;;;4.60;;
1262;SDS011;62267;50.112;8.704;2022-10-16T14:11:53;4.93;;;4.53;;
1262;SDS011;62267;50.112;8.704;2022-10-16T14:14:42;5.60;;;5.10;;
1262;SDS011;62267;50.112;8.704;2022-10-16T14:17:30;4.97;;;4.10;;
1262;SDS011;62267;50.112;8.704;2022-10-16T14:20:16;4.23;;;3.93;;
1262;SDS011;62267;50.112;8.704;2022-10-16T14:23:18;6.20;;;5.50;;
1262;SDS011;62267;50.112;8.704;2022-10-16T14:26:05;5.60;;;5.10;;
1262;SDS011;62267;50.112;8.704;2022-10-16T14:29:34;7.40;;;4.90;;
1262;SDS011;62267;50.112;8.704;2022-10-16T14:32:01;4.80;;;4.50;;
1262;SDS011;62267;50.112;8.704;2022-10-16T14:34:52;4.20;;;3.80;;
1262;SDS011;62267;50.112;8.704;2022-10-16T14:37:39;3.67;;;3.47;;
1262;SDS011;62267;50.112;8.704;2022-10-16T14:40:28;6.53;;;4.67;;
1262;SDS011;62267;50.112;8.704;2022-10-16T14:43:17;6.47;;;5.40;;
1262;SDS011;62267;50.112;8.704;2022-10-16T14:46:13;3.80;;;3.50;;
1262;SDS011;62267;50.112;8.704;2022-10-16T14:49:22;3.30;;;3.10;;
1262;SDS011;62267;50.112;8.704;2022-10-16T14:52:09;5.10;;;4.70;;
1262;SDS011;62267;50.112;8.704;2022-10-16T14:54:56;5.83;;;5.33;;
1262;SDS011;62267;50.112;8.704;2022-10-16T14:57:42;4.60;;;4.10;;
1262;SDS011;62267;50.112;8.704;2022-10-16T15:00:28;6.23;;;3.70;;
1262;SDS011;62267;50.112;8.704;2022-10-16T15:03:14;3.93;;;3.63;;
1262;SDS011;62267;50.112;8.704;2022-10-16T15:06:00;4.80;;;4.43;;
1262;SDS011;62267;50.112;8.704;2022-10-16T15:08:46;4.70;;;4.27;;
1262;SDS011;62267;50.112;8.704;2022-10-16T15:11:32;7.60;;;5.20;;
1262;SDS011;62267;50.112;8.704;2022-10-16T15:14:18;4.63;;;4.23;;
1262;SDS011;62267;50.112;8.704;2022-10-16T15:17:04;7.07;;;6.47;;
1262;SDS011;62267;50.112;8.704;2022-10-16T15:19:49;5.20;;;4.80;;
1262;SDS011;62267;50.112;8.704;2022-10-16T15:22:35;4.53;;;4.23;;
1262;SDS011;62267;50.112;8.704;2022-10-16T15:28:27;5.17;;;4.70;;
1262;SDS011;62267;50.112;8.704;2022-10-16T15:31:13;5.20;;;4.77;;
1262;SDS011;62267;50.112;8.704;2022-10-16T15:33:59;3.93;;;3.73;;
1262;SDS011;62267;50.112;8.704;2022-10-16T15:36:50;4.73;;;4.33;;
1262;SDS011;62267;50.112;8.704;2022-10-16T15:39:38;4.10;;;3.80;;
1262;SDS011;62267;50.112;8.704;2022-10-16T15:42:25;4.63;;;4.23;;
1262;SDS011;62267;50.112;8.704;2022-10-16T15:45:11;6.20;;;4.40;;
1262;SDS011;62267;50.112;8.704;2022-10-16T15:47:58;6.30;;;5.50;;
1262;SDS011;62267;50.112;8.704;2022-10-16T15:50:44;7.10;;;6.40;;
1262;SDS011;62267;50.112;8.704;2022-10-16T15:53:30;6.87;;;6.27;;
1262;SDS011;62267;50.112;8.704;2022-10-16T15:56:15;6.60;;;5.83;;
1262;SDS011;62267;50.112;8.704;2022-10-16T15:59:01;6.13;;;5.63;;
1262;SDS011;62267;50.112;8.704;2022-10-16T16:01:48;6.30;;;5.50;;
1262;SDS011;62267;50.112;8.704;2022-10-16T16:04:34;9.40;;;7.17;;
1262;SDS011;62267;50.112;8.704;2022-10-16T16:07:29;7.33;;;6.40;;
1262;SDS011;62267;50.112;8.704;2022-10-16T16:10:17;7.87;;;6.70;;
1262;SDS011;62267;50.112;8.704;2022-10-16T16:13:04;8.43;;;7.60;;
1262;SDS011;62267;50.112;8.704;2022-10-16T16:15:50;8.17;;;7.43;;
1262;SDS011;62267;50.112;8.704;2022-10-16T16:18:35;8.40;;;7.27;;
1262;SDS011;62267;50.112;8.704;2022-10-16T16:21:21;7.20;;;6.37;;
1262;SDS011;62267;50.112;8.704;2022-10-16T16:24:07;11.00;;;9.80;;
1262;SDS011;62267;50.112;8.704;2022-10-16T16:26:53;15.07;;;9.70;;
1262;SDS011;62267;50.112;8.704;2022-10-16T16:29:39;9.03;;;7.30;;
1262;SDS011;62267;50.112;8.704;2022-10-16T16:32:25;8.90;;;6.93;;
1262;SDS011;62267;50.112;8.704;2022-10-16T16:35:11;9.27;;;7.90;;
1262;SDS011;62267;50.112;8.704;2022-10-16T16:37:57;7.93;;;7.23;;
1262;SDS011;62267;50.112;8.704;2022-10-16T16:40:43;7.50;;;7.00;;
1262;SDS011;62267;50.112;8.704;2022-10-16T16:43:29;7.50;;;6.90;;
1262;SDS011;62267;50.112;8.704;2022-10-16T16:46:16;8.40;;;7.60;;
1262;SDS011;62267;50.112;8.704;2022-10-16T16:49:02;7.97;;;7.27;;
1262;SDS011;62267;50.112;8.704;2022-10-16T16:51:48;8.43;;;7.63;;
1262;SDS011;62267;50.112;8.704;2022-10-16T16:54:33;9.03;;;8.20;;
1262;SDS011;62267;50.112;8.704;2022-10-16T16:57:20;35.97;;;31.80;;
1262;SDS011;62267;50.112;8.704;2022-10-16T17:00:06;22.60;;;20.30;;
1262;SDS011;62267;50.112;8.704;2022-10-16T17:02:52;9.50;;;8.70;;
1262;SDS011;62267;50.112;8.704;2022-10-16T17:05:37;9.73;;;8.73;;
1262;SDS011;62267;50.112;8.704;2022-10-16T17:08:23;9.70;;;8.30;;
1262;SDS011;62267;50.112;8.704;2022-10-16T17:11:13;10.70;;;8.67;;
1262;SDS011;62267;50.112;8.704;2022-10-16T17:14:00;9.27;;;8.40;;
1262;SDS011;62267;50.112;8.704;2022-10-16T17:16:46;8.93;;;8.03;;
1262;SDS011;62267;50.112;8.704;2022-10-16T17:19:33;8.60;;;7.70;;
1262;SDS011;62267;50.112;8.704;2022-10-16T17:22:19;10.83;;;9.03;;
1262;SDS011;62267;50.112;8.704;2022-10-16T17:25:05;10.40;;;9.30;;
1262;SDS011;62267;50.112;8.704;2022-10-16T17:27:52;10.23;;;9.20;;
1262;SDS011;62267;50.112;8.704;2022-10-16T17:30:39;9.80;;;8.90;;
1262;SDS011;62267;50.112;8.704;2022-10-16T17:33:25;11.50;;;9.93;;
1262;SDS011;62267;50.112;8.704;2022-10-16T17:36:11;10.20;;;9.07;;
1262;SDS011;62267;50.112;8.704;2022-10-16T17:38:59;11.93;;;8.73;;
1262;SDS011;62267;50.112;8.704;2022-10-16T17:41:47;8.50;;;7.73;;
1262;SDS011;62267;50.112;8.704;2022-10-16T17:44:33;10.23;;;8.90;;
1262;SDS011;62267;50.112;8.704;2022-10-16T17:47:19;11.43;;;10.00;;
1262;SDS011;62267;50.112;8.704;2022-10-16T17:50:05;11.47;;;10.40;;
1262;SDS011;62267;50.112;8.704;2022-10-16T17:52:58;12.07;;;10.87;;
1262;SDS011;62267;50.112;8.704;2022-10-16T17:55:44;12.40;;;11.17;;
1262;SDS011;62267;50.112;8.704;2022-10-16T17:58:30;10.37;;;9.37;;
1262;SDS011;62267;50.112;8.704;2022-10-16T18:01:21;10.90;;;9.63;;
1262;SDS011;62267;50.112;8.704;2022-10-16T18:04:09;10.60;;;9.50;;
1262;SDS011;62267;50.112;8.704;2022-10-16T18:06:56;12.20;;;9.10;;
1262;SDS011;62267;50.112;8.704;2022-10-16T18:09:44;11.20;;;10.00;;
1262;SDS011;62267;50.112;8.704;2022-10-16T18:12:49;10.80;;;9.70;;
1262;SDS011;62267;50.112;8.704;2022-10-16T18:15:36;11.57;;;9.93;;
1262;SDS011;62267;50.112;8.704;2022-10-16T18:18:22;10.70;;;9.47;;
1262;SDS011;62267;50.112;8.704;2022-10-16T18:21:14;14.00;;;10.43;;
1262;SDS011;62267;50.112;8.704;2022-10-16T18:24:00;11.33;;;10.20;;
1262;SDS011;62267;50.112;8.704;2022-10-16T18:26:48;12.10;;;10.40;;
1262;SDS011;62267;50.112;8.704;2022-10-16T18:29:34;14.80;;;13.30;;
1262;SDS011;62267;50.112;8.704;2022-10-16T18:32:21;14.43;;;12.30;;